createdAt,value
2018-11-20T00:01:24.808Z,21.33
2018-11-20T00:04:31.697Z,20.12
2018-11-20T00:07:38.632Z,23.00
2018-11-20T00:10:45.940Z,19.77
2018-11-20T00:13:52.838Z,20.15
2018-11-20T00:16:59.744Z,20.80
2018-11-20T00:20:06.306Z,22.73
2018-11-20T00:23:13.250Z,22.58
2018-11-20T00:26:20.139Z,21.07
2018-11-20T00:29:26.941Z,21.15
2018-11-20T00:32:33.795Z,21.55
2018-11-20T00:35:40.397Z,20.82
2018-11-20T00:38:37.490Z,23.20
2018-11-20T00:41:44.110Z,21.20
2018-11-20T00:44:50.918Z,21.10
2018-11-20T00:47:57.880Z,21.40
2018-11-20T00:51:04.772Z,23.00
2018-11-20T00:54:11.377Z,22.32
2018-11-20T00:57:19.013Z,21.82
2018-11-20T01:00:12.541Z,21.10
2018-11-20T01:03:07.477Z,22.07
2018-11-20T01:06:14.032Z,22.15
2018-11-20T01:09:20.560Z,20.00
2018-11-20T01:12:27.220Z,21.50
2018-11-20T01:15:34.052Z,24.15
2018-11-20T01:18:41.627Z,20.70
2018-11-20T01:21:48.408Z,19.82
2018-11-20T01:24:55.154Z,23.32
2018-11-20T01:28:02.017Z,20.30
2018-11-20T01:31:09.397Z,23.35
2018-11-20T01:34:16.917Z,20.85
2018-11-20T01:37:23.672Z,19.85
2018-11-20T01:40:30.228Z,21.15
2018-11-20T01:43:36.818Z,20.85
2018-11-20T01:46:43.658Z,20.52
2018-11-20T01:49:50.494Z,22.42
2018-11-20T01:52:49.296Z,21.45
2018-11-20T01:55:56.161Z,21.77
2018-11-20T01:59:03.027Z,19.77
2018-11-20T02:02:09.560Z,21.85
2018-11-20T02:05:16.249Z,20.00
2018-11-20T02:08:23.011Z,20.57
2018-11-20T02:11:29.747Z,19.80
2018-11-20T02:14:36.780Z,19.60
2018-11-20T02:17:45.707Z,21.02
2018-11-20T02:20:53.299Z,21.25
2018-11-20T02:23:50.623Z,19.65
2018-11-20T02:26:57.181Z,20.25
2018-11-20T02:29:58.549Z,18.37
2018-11-20T02:33:05.426Z,19.42
2018-11-20T02:36:02.579Z,20.12
2018-11-20T02:39:09.915Z,20.62
2018-11-20T02:42:16.469Z,18.75
2018-11-20T02:45:23.069Z,19.98
2018-11-20T02:48:29.932Z,16.97
2018-11-20T02:51:36.877Z,18.55
2018-11-20T02:54:43.862Z,19.30
2018-11-20T02:57:50.343Z,20.88
2018-11-20T03:00:56.910Z,17.25
2018-11-20T03:04:03.472Z,19.30
2018-11-20T03:06:56.541Z,21.48
2018-11-20T03:10:03.073Z,19.50
2018-11-20T03:13:09.845Z,20.32
2018-11-20T03:16:06.753Z,19.48
2018-11-20T03:19:13.240Z,20.00
2018-11-20T03:22:20.072Z,20.17
2018-11-20T03:25:45.875Z,19.77
2018-11-20T03:28:54.093Z,19.62
2018-11-20T03:32:00.652Z,20.68
2018-11-20T03:35:07.144Z,20.08
2018-11-20T03:38:13.706Z,19.95
2018-11-20T03:41:20.269Z,21.42
2018-11-20T03:44:16.416Z,21.00
2018-11-20T03:47:22.986Z,21.80
2018-11-20T03:50:30.537Z,20.70
2018-11-20T03:53:37.056Z,22.00
2018-11-20T03:56:43.617Z,22.15
2018-11-20T03:59:50.361Z,20.62
2018-11-20T04:02:57.223Z,21.73
2018-11-20T04:06:03.791Z,20.27
2018-11-20T04:09:10.654Z,21.77
2018-11-20T04:12:05.588Z,21.93
2018-11-20T04:15:12.129Z,20.75
2018-11-20T04:18:11.104Z,20.48
2018-11-20T04:21:07.881Z,22.35
2018-11-20T04:24:14.383Z,20.40
2018-11-20T04:27:20.954Z,21.25
2018-11-20T04:30:45.353Z,21.15
2018-11-20T04:33:55.468Z,21.77
2018-11-20T04:37:03.717Z,21.77
2018-11-20T04:39:58.718Z,21.80
2018-11-20T04:43:05.620Z,21.27
2018-11-20T04:46:12.171Z,20.02
2018-11-20T04:49:18.669Z,21.65
2018-11-20T04:52:25.154Z,22.05
2018-11-20T04:55:31.676Z,22.22
2018-11-20T04:58:38.243Z,23.80
2018-11-20T05:01:44.797Z,19.77
2018-11-20T05:04:51.366Z,22.02
2018-11-20T05:07:57.852Z,22.30
2018-11-20T05:11:04.609Z,21.33
2018-11-20T05:14:11.135Z,23.73
2018-11-20T05:17:17.694Z,21.75
2018-11-20T05:20:24.599Z,21.17
2018-11-20T05:23:31.154Z,19.32
2018-11-20T05:26:37.931Z,21.45
2018-11-20T05:29:44.485Z,22.13
2018-11-20T05:32:51.245Z,20.32
2018-11-20T05:35:57.758Z,21.77
2018-11-20T05:39:04.604Z,19.90
2018-11-20T05:42:47.702Z,23.53
2018-11-20T05:45:47.555Z,22.98
2018-11-20T05:48:53.274Z,21.35
2018-11-20T05:51:48.691Z,21.87
2018-11-20T05:54:48.084Z,24.23
2018-11-20T05:57:47.812Z,22.80
2018-11-20T06:00:47.641Z,23.22
2018-11-20T06:03:34.993Z,22.65
2018-11-20T06:06:34.463Z,21.48
2018-11-20T06:09:33.376Z,24.75
2018-11-20T06:12:32.430Z,19.60
2018-11-20T06:15:26.924Z,20.55
2018-11-20T06:21:33.798Z,20.85
2018-11-20T06:24:32.795Z,22.40
2018-11-20T06:27:32.704Z,18.62
2018-11-20T06:30:34.735Z,20.15
2018-11-20T06:33:34.150Z,21.62
2018-11-20T06:36:33.791Z,20.82
2018-11-20T06:39:33.071Z,20.17
2018-11-20T06:42:25.947Z,22.87
2018-11-20T06:45:26.056Z,21.42
2018-11-20T06:48:25.715Z,20.40
2018-11-20T06:51:17.844Z,21.80
2018-11-20T06:54:23.132Z,19.90
2018-11-20T06:57:22.215Z,22.75
2018-11-20T07:00:21.845Z,20.60
2018-11-20T07:03:22.646Z,21.42
2018-11-20T07:06:21.807Z,19.20
2018-11-20T07:09:20.889Z,19.90
2018-11-20T07:12:20.467Z,21.23
2018-11-20T07:15:08.111Z,22.22
2018-11-20T07:18:07.836Z,21.40
2018-11-20T07:20:57.371Z,20.72
2018-11-20T07:23:56.543Z,21.25
2018-11-20T07:26:47.474Z,19.12
2018-11-20T07:29:47.272Z,20.50
2018-11-20T07:32:46.776Z,21.35
2018-11-20T07:38:47.750Z,20.48
2018-11-20T07:41:47.577Z,20.32
2018-11-20T07:44:50.546Z,20.37
2018-11-20T07:47:49.606Z,22.05
2018-11-20T07:50:52.385Z,20.20
2018-11-20T07:53:52.080Z,21.30
2018-11-20T07:56:40.786Z,21.10
2018-11-20T07:59:42.601Z,20.90
2018-11-20T08:02:41.714Z,19.75
2018-11-20T08:05:41.494Z,20.17
2018-11-20T08:08:41.282Z,19.55
2018-11-20T08:11:41.033Z,18.52
2018-11-20T08:14:43.555Z,21.20
2018-11-20T08:17:38.847Z,21.85
2018-11-20T08:20:28.765Z,21.57
2018-11-20T08:23:28.280Z,20.55
2018-11-20T08:26:27.740Z,21.97
2018-11-20T08:29:30.028Z,22.75
2018-11-20T08:32:29.141Z,21.97
2018-11-20T08:35:27.800Z,21.75
2018-11-20T08:38:27.058Z,21.27
2018-11-20T08:41:26.890Z,23.62
2018-11-20T08:44:17.581Z,21.25
2018-11-20T08:47:16.567Z,21.23
2018-11-20T08:50:15.556Z,47.20
2018-11-20T08:53:10.724Z,20.32
2018-11-20T08:59:18.440Z,19.25
2018-11-20T09:02:08.098Z,23.10
2018-11-20T09:05:13.632Z,19.80
2018-11-20T09:08:12.820Z,24.20
2018-11-20T09:11:11.894Z,20.75
2018-11-20T09:14:17.013Z,18.85
2018-11-20T09:17:16.780Z,19.82
2018-11-20T09:20:16.613Z,19.70
2018-11-20T09:23:15.707Z,23.02
2018-11-20T09:26:09.595Z,22.20
2018-11-20T09:29:08.678Z,20.17
2018-11-20T09:32:07.677Z,21.65
2018-11-20T09:35:07.624Z,22.52
2018-11-20T09:38:01.516Z,20.90
2018-11-20T09:41:00.653Z,22.22
2018-11-20T09:44:05.699Z,22.22
2018-11-20T09:47:05.223Z,20.77
2018-11-20T09:50:04.067Z,20.70
2018-11-20T09:53:03.503Z,22.22
2018-11-20T09:56:03.234Z,22.80
2018-11-20T09:58:57.474Z,20.65
2018-11-20T10:05:01.944Z,21.85
2018-11-20T10:08:01.166Z,22.10
2018-11-20T10:11:01.007Z,21.95
2018-11-20T10:14:06.783Z,23.22
2018-11-20T10:17:05.854Z,20.43
2018-11-20T10:20:04.975Z,19.95
2018-11-20T10:23:04.329Z,19.95
2018-11-20T10:25:58.335Z,19.48
2018-11-20T10:28:57.468Z,20.85
2018-11-20T10:31:57.365Z,19.77
2018-11-20T10:34:57.175Z,21.85
2018-11-20T10:37:57.026Z,18.55
2018-11-20T10:40:54.740Z,19.40
2018-11-20T10:43:54.665Z,23.57
2018-11-20T10:46:54.155Z,21.33
2018-11-20T10:49:50.387Z,22.85
2018-11-20T10:52:43.563Z,23.62
2018-11-20T10:59:00.506Z,21.85
2018-11-20T11:02:00.276Z,22.17
2018-11-20T11:04:59.347Z,21.35
2018-11-20T11:08:05.833Z,21.82
2018-11-20T11:10:59.361Z,20.85
2018-11-20T11:14:05.548Z,20.15
2018-11-20T11:17:29.929Z,23.57
2018-11-20T11:20:36.230Z,21.68
2018-11-20T11:23:42.320Z,22.22
2018-11-20T11:26:48.517Z,22.02
2018-11-20T11:29:54.707Z,21.82
2018-11-20T11:33:00.816Z,24.95
2018-11-20T11:36:06.990Z,20.60
2018-11-20T11:39:13.217Z,19.98
2018-11-20T11:45:43.556Z,24.23
2018-11-20T11:48:50.006Z,23.98
2018-11-20T11:51:56.186Z,23.10
2018-11-20T11:55:03.131Z,21.87
2018-11-20T11:58:09.726Z,21.70
2018-11-20T12:01:10.097Z,21.80
2018-11-20T12:04:16.215Z,23.90
2018-11-20T12:07:22.399Z,21.23
2018-11-20T12:10:28.591Z,19.45
2018-11-20T12:13:24.047Z,22.90
2018-11-20T12:16:30.232Z,23.38
2018-11-20T12:19:36.408Z,20.80
2018-11-20T12:22:42.540Z,22.35
2018-11-20T12:25:48.665Z,21.45
2018-11-20T12:28:55.812Z,21.80
2018-11-20T12:32:01.056Z,22.35
2018-11-20T12:37:55.549Z,25.65
2018-11-20T12:41:02.021Z,23.87
2018-11-20T12:44:08.970Z,22.77
2018-11-20T12:47:15.300Z,23.20
2018-11-20T12:53:02.511Z,26.62
2018-11-20T12:56:07.602Z,34.35
2018-11-20T12:59:14.037Z,30.35
2018-11-20T13:02:19.983Z,34.63
2018-11-20T13:05:26.163Z,30.30
2018-11-20T13:08:13.813Z,24.75
2018-11-20T13:11:19.971Z,25.65
2018-11-20T13:14:26.160Z,27.13
2018-11-20T13:17:33.621Z,25.62
2018-11-20T13:20:38.474Z,28.12
2018-11-20T13:23:45.422Z,27.13
2018-11-20T13:26:51.591Z,24.50
2018-11-20T13:29:57.777Z,29.20
2018-11-20T13:35:52.223Z,25.48
2018-11-20T13:39:00.597Z,25.08
2018-11-20T13:42:05.304Z,25.90
2018-11-20T13:45:14.958Z,29.07
2018-11-20T13:48:17.608Z,22.95
2018-11-20T13:51:23.895Z,22.20
2018-11-20T13:54:31.877Z,22.07
2018-11-20T13:57:36.222Z,23.98
2018-11-20T14:03:52.785Z,22.35
2018-11-20T14:06:58.981Z,23.95
2018-11-20T14:10:05.345Z,23.12
2018-11-20T14:13:11.468Z,24.43
2018-11-20T14:16:17.650Z,26.42
2018-11-20T14:19:23.825Z,23.22
2018-11-20T14:22:30.046Z,24.80
2018-11-20T14:25:46.756Z,24.77
2018-11-20T14:28:53.540Z,29.02
2018-11-20T14:31:59.671Z,27.48
2018-11-20T14:35:06.144Z,23.42
2018-11-20T14:38:12.747Z,29.92
2018-11-20T14:41:19.205Z,28.30
2018-11-20T14:44:25.396Z,26.62
2018-11-20T14:47:12.235Z,26.90
2018-11-20T14:50:18.840Z,27.25
2018-11-20T14:56:23.847Z,23.18
2018-11-20T15:02:41.256Z,24.72
2018-11-20T15:12:23.040Z,26.20
2018-11-20T15:15:31.070Z,24.60
2018-11-20T15:18:40.479Z,25.20
2018-11-20T15:21:43.553Z,25.65
2018-11-20T15:24:49.715Z,23.85
2018-11-20T15:27:55.897Z,22.42
2018-11-20T15:31:02.098Z,24.77
2018-11-20T15:34:08.975Z,28.90
2018-11-20T15:37:15.644Z,29.60
2018-11-20T15:40:04.567Z,27.60
2018-11-20T15:46:37.144Z,25.37
2018-11-20T15:49:43.342Z,28.05
2018-11-20T15:52:49.805Z,26.15
2018-11-20T15:59:25.654Z,40.10
2018-11-20T16:05:42.755Z,31.95
2018-11-20T16:08:48.925Z,27.58
2018-11-20T16:11:56.496Z,28.50
2018-11-20T16:18:27.230Z,30.50
2018-11-20T16:21:26.719Z,32.28
2018-11-20T16:27:21.453Z,31.10
2018-11-20T16:30:30.593Z,33.35
2018-11-20T16:33:36.694Z,30.10
2018-11-20T16:39:53.488Z,27.02
2018-11-20T16:45:53.402Z,29.18
2018-11-20T16:48:40.006Z,22.93
2018-11-20T16:52:04.749Z,25.00
2018-11-20T16:59:10.369Z,27.00
2018-11-20T17:01:57.383Z,25.88
2018-11-20T17:05:03.530Z,26.15
2018-11-20T17:08:14.260Z,25.10
2018-11-20T17:11:16.593Z,23.60
2018-11-20T17:14:22.870Z,24.72
2018-11-20T17:17:29.045Z,24.87
2018-11-20T17:20:35.204Z,24.92
2018-11-20T17:23:41.647Z,22.58
2018-11-20T17:26:48.020Z,23.27
2018-11-20T17:29:54.716Z,28.47
2018-11-20T17:33:00.853Z,28.50
2018-11-20T17:36:07.023Z,30.37
2018-11-20T17:39:01.255Z,27.95
2018-11-20T17:42:08.221Z,28.98
2018-11-20T17:45:14.346Z,26.07
2018-11-20T17:48:20.795Z,28.92
2018-11-20T17:51:27.268Z,29.90
2018-11-20T17:54:33.444Z,28.83
2018-11-20T17:57:39.623Z,27.02
2018-11-20T18:00:34.723Z,26.73
2018-11-20T18:03:40.896Z,27.07
2018-11-20T18:06:47.657Z,25.35
2018-11-20T18:09:54.291Z,27.85
2018-11-20T18:13:00.912Z,29.70
2018-11-20T18:16:07.175Z,28.32
2018-11-20T18:19:06.772Z,33.30
2018-11-20T18:21:59.213Z,33.30
2018-11-20T18:24:59.010Z,29.55
2018-11-20T18:27:48.625Z,26.97
2018-11-20T18:30:50.688Z,28.45
2018-11-20T18:33:50.516Z,26.37
2018-11-20T18:36:50.289Z,27.30
2018-11-20T18:39:53.409Z,25.80
2018-11-20T18:42:52.892Z,24.90
2018-11-20T18:45:52.556Z,25.23
2018-11-20T18:48:50.609Z,26.70
2018-11-20T18:51:50.322Z,24.52
2018-11-20T18:54:50.141Z,33.48
2018-11-20T18:57:39.911Z,31.48
2018-11-20T19:00:37.787Z,28.00
2018-11-20T19:03:24.611Z,24.50
2018-11-20T19:06:24.289Z,27.40
2018-11-20T19:09:23.276Z,22.82
2018-11-20T19:12:22.230Z,23.73
2018-11-20T19:15:22.014Z,25.08
2018-11-20T19:18:08.754Z,25.50
2018-11-20T19:21:08.005Z,23.38
2018-11-20T19:24:07.609Z,25.10
2018-11-20T19:27:07.384Z,28.90
2018-11-20T19:29:59.118Z,28.17
2018-11-20T19:32:57.955Z,26.93
2018-11-20T19:35:57.111Z,25.37
2018-11-20T19:38:56.983Z,25.23
2018-11-20T19:41:48.115Z,23.35
2018-11-20T19:44:34.682Z,22.60
2018-11-20T19:47:41.203Z,23.62
2018-11-20T19:50:47.899Z,23.27
2018-11-20T19:53:54.083Z,22.35
2018-11-20T19:57:00.498Z,22.42
2018-11-20T20:00:07.010Z,21.27
2018-11-20T20:03:13.151Z,21.70
2018-11-20T20:06:19.811Z,21.00
2018-11-20T20:09:28.022Z,21.37
2018-11-20T20:12:34.494Z,20.52
2018-11-20T20:15:22.206Z,22.07
2018-11-20T20:18:28.700Z,21.27
2018-11-20T20:21:35.645Z,21.48
2018-11-20T20:24:41.831Z,21.00
2018-11-20T20:27:48.222Z,20.15
2018-11-20T20:30:54.405Z,21.05
2018-11-20T20:34:00.528Z,19.52
2018-11-20T20:37:06.704Z,17.82
2018-11-20T20:40:13.084Z,17.90
2018-11-20T20:43:19.298Z,19.10
2018-11-20T20:46:25.492Z,21.17
2018-11-20T20:49:21.645Z,20.17
2018-11-20T20:52:28.101Z,21.57
2018-11-20T20:55:30.816Z,19.92
2018-11-20T20:58:37.140Z,18.65
2018-11-20T21:01:43.343Z,20.20
2018-11-20T21:04:50.102Z,19.35
2018-11-20T21:07:56.555Z,21.73
2018-11-20T21:11:03.014Z,20.72
2018-11-20T21:14:09.182Z,19.90
2018-11-20T21:17:15.363Z,21.95
2018-11-20T21:20:21.539Z,20.95
2018-11-20T21:23:27.733Z,20.70
2018-11-20T21:26:33.937Z,22.15
2018-11-20T21:29:40.064Z,20.30
2018-11-20T21:32:46.242Z,20.35
2018-11-20T21:35:53.170Z,20.32
2018-11-20T21:39:00.110Z,20.72
2018-11-20T21:41:46.846Z,23.85
2018-11-20T21:48:16.864Z,22.10
2018-11-20T21:51:23.108Z,20.52
2018-11-20T21:54:29.215Z,22.95
2018-11-20T21:57:36.347Z,20.65
2018-11-20T22:00:45.293Z,21.40
2018-11-20T22:03:51.468Z,18.85
2018-11-20T22:06:57.888Z,25.23
2018-11-20T22:10:04.552Z,24.27
2018-11-20T22:13:10.939Z,23.38
2018-11-20T22:16:17.453Z,24.23
2018-11-20T22:19:23.933Z,24.18
2018-11-20T22:22:30.640Z,21.52
2018-11-20T22:25:37.581Z,22.15
2018-11-20T22:28:43.963Z,26.40
2018-11-20T22:31:50.435Z,23.38
2018-11-20T22:34:56.621Z,23.70
2018-11-20T22:38:03.430Z,25.40
2018-11-20T22:41:08.414Z,25.02
2018-11-20T22:44:03.690Z,23.32
2018-11-20T22:46:50.255Z,23.12
2018-11-20T22:49:57.393Z,23.70
2018-11-20T22:53:03.891Z,24.47
2018-11-20T22:56:10.020Z,24.07
2018-11-20T22:59:16.175Z,25.75
2018-11-20T23:02:16.090Z,21.73
2018-11-20T23:05:14.838Z,23.00
2018-11-20T23:08:01.764Z,23.27
2018-11-20T23:10:48.931Z,20.90
2018-11-20T23:13:36.199Z,22.32
2018-11-20T23:16:22.722Z,22.37
2018-11-20T23:19:10.271Z,22.52
2018-11-20T23:21:57.174Z,21.00
2018-11-20T23:24:44.335Z,20.65
2018-11-20T23:27:31.177Z,23.65
2018-11-20T23:30:18.334Z,21.97
2018-11-20T23:33:04.940Z,20.65
2018-11-20T23:35:51.468Z,21.30
2018-11-20T23:38:38.362Z,20.50
2018-11-20T23:41:24.957Z,22.42
2018-11-20T23:44:11.531Z,20.80
2018-11-20T23:46:58.666Z,19.73
2018-11-20T23:49:46.858Z,20.52
2018-11-20T23:52:33.661Z,22.42
2018-11-20T23:55:20.984Z,22.17
2018-11-20T23:58:07.876Z,25.23
